Hettinger, ND (58639)

4:24 PM MDT on July 27, 2017 (GMT -0600)
South East Hettinger | | Change Station

Elev 2697 ft 46.00 °N, 102.63 °W | Updated 1 second ago

Overcast
Overcast
71.4 °F
Feels Like 75 °F
N
6.0
Wind Variable Wind from SSE

Today
High -- | Low -- °F
--% Chance of Precip.
Yesterday
High -- | Low -- °F
Precip. -- in
Pressure 30.06 in
Visibility 10.0 miles
Clouds Overcast 9500 ft
Heat Index 75 °F
Dew Point 59 °F
Humidity 65%
Rainfall 0.00 in
Snow Depth Not available.
5:27 AM 8:25 PM
Waxing Crescent, 24% visible
METAR KHEI 272153Z AUTO 23017KT 10SM -RA OVC095 23/13 A3010 RMK AO2 PK WND 21026/2132 RAB46 SLP178 P0000 T02280133
Pressure 30.06 in
Visibility 10.0 miles
Clouds Overcast 9500 ft
Heat Index 75 °F
Dew Point 59 °F
Humidity 65%
Rainfall 0.00 in
Snow Depth Not available.
5:27 AM 8:25 PM
Waxing Crescent, 24% visible
METAR KHEI 272153Z AUTO 23017KT 10SM -RA OVC095 23/13 A3010 RMK AO2 PK WND 21026/2132 RAB46 SLP178 P0000 T02280133

Get Severe Weather Alerts

Thanks for signing up!

Be on the lookout for a verification email in your inbox.

You'll start receiving the daily forecast at 6 AM.

×

10-Day Weather Forecast

Almanac

Astronomy

Jul. 27, 2017 Rise Set
Actual Time
Civil Twilight
Nautical Twilight
Astronomical Twilight
Moon
Length of Visible Light
Length of Day
Tomorrow will be .
, % of the Moon is Illuminated

Today's Extremes

State Highs State Lows

Community

WunderPhotos

Category 6

Welcome to Category 6. This is the collective home for Weather Underground's featured writeups by Dr. Jeff Masters (right), Bob Henson (left), Chris Burt, and other regular contributors.

Nearby

Air Quality

  Air Quality AQ Index Pollutant
Not available.

Snow Depth

Station Depth Elevation

Earthquake Activity

City Distance Mag. Time & Date
Minimum magnitude displayed is 2.5.

Coastal Water Temperatures

Place Temperature

Stations

Nearby Weather Stations

Station Location Temp. Windchill Dew Point Humidity Wind Precip. Elev Updated Type
                   

Watches & Warnings

There are currently no watches in effect.